createdAt,value
2023-03-12T00:01:17.018Z,7.33
2023-03-12T00:04:20.928Z,7.77
2023-03-12T00:07:24.082Z,5.27
2023-03-12T00:10:28.558Z,5.43
2023-03-12T00:13:31.584Z,9.03
2023-03-12T00:16:34.739Z,6.30
2023-03-12T00:19:37.780Z,7.50
2023-03-12T00:22:41.436Z,12.23
2023-03-12T00:25:46.918Z,5.33
2023-03-12T00:28:50.998Z,6.23
2023-03-12T00:31:54.207Z,8.40
2023-03-12T00:34:57.927Z,5.77
2023-03-12T00:38:03.229Z,8.67
2023-03-12T00:41:07.914Z,8.90
2023-03-12T00:44:14.085Z,6.40
2023-03-12T00:47:17.480Z,7.23
2023-03-12T00:50:20.898Z,6.00
2023-03-12T00:53:27.132Z,6.03
2023-03-12T00:56:31.817Z,7.53
2023-03-12T00:59:35.346Z,9.50
2023-03-12T01:02:39.703Z,9.77
2023-03-12T01:05:49.035Z,6.60
2023-03-12T01:08:55.269Z,8.97
2023-03-12T01:12:03.147Z,6.53
2023-03-12T01:15:11.901Z,6.07
2023-03-12T01:18:15.596Z,7.37
2023-03-12T01:21:21.459Z,8.80
2023-03-12T01:24:25.471Z,5.63
2023-03-12T01:27:30.438Z,7.83
2023-03-12T01:30:35.734Z,6.23
2023-03-12T01:33:40.205Z,6.70
2023-03-12T01:36:52.212Z,6.60
2023-03-12T01:40:04.673Z,6.80
2023-03-12T01:43:31.724Z,8.87
2023-03-12T01:46:38.385Z,5.60
2023-03-12T01:49:49.760Z,6.37
2023-03-12T01:53:07.077Z,5.77
2023-03-12T01:56:11.975Z,11.37
2023-03-12T01:59:23.831Z,6.30
2023-03-12T02:02:32.166Z,10.30
2023-03-12T02:05:44.364Z,10.27
2023-03-12T02:08:49.188Z,7.30
2023-03-12T02:11:52.414Z,8.27
2023-03-12T02:14:58.033Z,10.33
2023-03-12T02:18:04.086Z,9.00
2023-03-12T02:21:17.480Z,7.40
2023-03-12T02:24:31.814Z,8.00
2023-03-12T02:27:38.483Z,5.77
2023-03-12T02:30:45.898Z,9.83
2023-03-12T02:33:49.457Z,7.97
2023-03-12T02:36:55.641Z,5.87
2023-03-12T02:40:06.752Z,8.77
2023-03-12T02:43:14.730Z,11.67
2023-03-12T02:46:18.434Z,7.70
2023-03-12T02:49:26.151Z,6.33
2023-03-12T02:52:35.537Z,9.43
2023-03-12T02:55:38.899Z,7.73
2023-03-12T02:58:44.737Z,7.47
2023-03-12T03:01:48.363Z,10.93
2023-03-12T03:04:51.876Z,8.13
2023-03-12T03:08:01.071Z,7.90
2023-03-12T03:11:04.508Z,11.03
2023-03-12T03:14:10.429Z,8.10
2023-03-12T03:17:16.103Z,9.50
2023-03-12T03:20:21.300Z,7.67
2023-03-12T03:23:26.081Z,9.40
2023-03-12T03:26:29.326Z,10.53
2023-03-12T03:29:37.036Z,8.00
2023-03-12T03:32:40.474Z,8.87
2023-03-12T03:35:44.919Z,10.27
2023-03-12T03:38:50.477Z,8.73
2023-03-12T03:41:54.656Z,7.83
2023-03-12T03:45:09.252Z,10.03
2023-03-12T03:48:13.467Z,7.47
2023-03-12T03:51:17.092Z,9.80
2023-03-12T03:54:23.465Z,8.00
2023-03-12T03:57:27.797Z,10.80
2023-03-12T04:00:32.701Z,6.63
2023-03-12T04:03:36.961Z,7.53
2023-03-12T04:06:43.307Z,8.53
2023-03-12T04:09:47.013Z,7.57
2023-03-12T04:12:56.693Z,8.90
2023-03-12T04:16:01.828Z,6.53
2023-03-12T04:19:05.231Z,11.67
2023-03-12T04:22:08.816Z,7.20
2023-03-12T04:25:12.100Z,9.53
2023-03-12T04:28:21.217Z,8.23
2023-03-12T04:31:29.390Z,11.50
2023-03-12T04:34:32.714Z,9.23
2023-03-12T04:37:44.050Z,12.30
2023-03-12T04:40:58.173Z,9.80
2023-03-12T04:44:01.471Z,8.87
2023-03-12T04:47:06.535Z,11.73
2023-03-12T04:50:18.381Z,10.90
2023-03-12T04:53:25.795Z,8.57
2023-03-12T04:56:29.329Z,9.60
2023-03-12T04:59:32.850Z,8.67
2023-03-12T05:02:38.132Z,11.30
2023-03-12T05:05:41.691Z,10.23
2023-03-12T05:08:50.994Z,8.80
2023-03-12T05:11:57.547Z,11.43
2023-03-12T05:15:02.280Z,12.33
2023-03-12T05:18:10.775Z,8.53
2023-03-12T05:21:16.809Z,13.60
2023-03-12T05:24:24.085Z,10.43
2023-03-12T05:27:28.471Z,11.53
2023-03-12T05:30:32.617Z,12.73
2023-03-12T05:33:40.270Z,12.73
2023-03-12T05:36:45.208Z,11.57
2023-03-12T05:39:57.280Z,9.80
2023-03-12T05:43:00.523Z,8.83
2023-03-12T05:46:06.405Z,11.30
2023-03-12T05:49:12.845Z,11.90
2023-03-12T05:52:18.630Z,8.27
2023-03-12T05:55:21.974Z,12.17
2023-03-12T05:58:34.294Z,7.93
2023-03-12T06:01:46.170Z,7.80
2023-03-12T06:04:56.712Z,9.57
2023-03-12T06:08:02.374Z,7.77
2023-03-12T06:11:11.449Z,10.03
2023-03-12T06:14:19.046Z,9.77
2023-03-12T06:17:22.722Z,7.93
2023-03-12T06:20:30.969Z,11.80
2023-03-12T06:23:37.390Z,7.23
2023-03-12T06:26:42.711Z,12.00
2023-03-12T06:29:47.164Z,15.53
2023-03-12T06:32:52.541Z,9.27
2023-03-12T06:35:58.583Z,12.37
2023-03-12T06:39:01.680Z,11.20
2023-03-12T06:42:05.257Z,8.27
2023-03-12T06:45:12.054Z,9.53
2023-03-12T06:48:16.096Z,8.10
2023-03-12T06:51:28.630Z,10.17
2023-03-12T06:54:37.630Z,7.83
2023-03-12T06:57:55.626Z,10.10
2023-03-12T07:00:59.056Z,8.03
2023-03-12T07:04:05.548Z,9.73
2023-03-12T07:07:11.913Z,8.70
2023-03-12T07:10:28.390Z,8.10
2023-03-12T07:18:03.048Z,9.90
2023-03-12T07:21:14.830Z,9.40
2023-03-12T07:24:27.900Z,8.47
2023-03-12T07:27:35.886Z,7.03
2023-03-12T07:30:57.742Z,8.70
2023-03-12T07:36:18.346Z,6.47
2023-03-12T07:38:53.577Z,10.60
2023-03-12T07:42:24.717Z,9.33
2023-03-12T07:46:24.896Z,8.00
2023-03-12T07:50:02.326Z,12.57
2023-03-12T07:53:23.561Z,10.87
2023-03-12T07:57:11.838Z,9.80
2023-03-12T08:01:13.435Z,6.87
2023-03-12T08:05:05.221Z,8.47
2023-03-12T08:08:19.561Z,13.60
2023-03-12T08:11:48.675Z,6.13
2023-03-12T08:18:39.796Z,8.07
2023-03-12T08:45:17.210Z,5.93
2023-03-12T09:09:05.174Z,11.90
2023-03-12T09:12:17.640Z,8.33
2023-03-12T09:15:46.730Z,7.03
2023-03-12T09:19:02.329Z,4.83
2023-03-12T09:22:10.020Z,5.50
2023-03-12T09:25:29.180Z,6.97
2023-03-12T09:28:37.035Z,5.20
2023-03-12T09:32:33.621Z,6.53
2023-03-12T09:35:52.485Z,6.40
2023-03-12T09:39:06.088Z,6.17
2023-03-12T09:43:09.684Z,5.50
2023-03-12T09:46:46.081Z,4.70
2023-03-12T09:50:21.636Z,6.87
2023-03-12T09:54:48.018Z,4.50
2023-03-12T09:58:13.695Z,11.60
2023-03-12T10:02:11.516Z,7.73
2023-03-12T10:06:03.789Z,5.60
2023-03-12T10:10:11.553Z,10.53
2023-03-12T10:13:35.448Z,6.37
2023-03-12T10:17:00.089Z,5.97
2023-03-12T10:20:51.938Z,5.17
2023-03-12T10:24:46.786Z,6.03
2023-03-12T10:28:34.487Z,4.90
2023-03-12T10:32:11.569Z,8.57
2023-03-12T10:35:33.597Z,6.23
2023-03-12T10:38:37.369Z,7.27
2023-03-12T10:41:43.589Z,6.20
2023-03-12T10:44:52.874Z,4.10
2023-03-12T10:48:03.019Z,5.50
2023-03-12T10:51:15.049Z,7.47
2023-03-12T10:54:41.526Z,3.53
2023-03-12T10:57:59.043Z,5.47
2023-03-12T11:01:27.342Z,3.23
2023-03-12T11:04:53.281Z,7.90
2023-03-12T11:08:02.040Z,5.57
2023-03-12T11:11:08.959Z,5.50
2023-03-12T11:14:22.155Z,4.97
2023-03-12T11:17:41.087Z,4.70
2023-03-12T11:20:52.216Z,4.97
2023-03-12T11:24:15.237Z,7.33
2023-03-12T11:28:08.077Z,4.90
2023-03-12T11:32:17.381Z,5.13
2023-03-12T11:36:23.927Z,5.60
2023-03-12T11:40:17.012Z,6.47
2023-03-12T11:48:43.476Z,7.10
2023-03-12T11:53:03.235Z,11.13
2023-03-12T12:27:33.808Z,4.60
2023-03-12T12:31:04.809Z,6.60
2023-03-12T12:35:06.610Z,5.97
2023-03-12T12:38:32.072Z,6.50
2023-03-12T12:42:07.876Z,6.03
2023-03-12T12:45:26.530Z,5.80
2023-03-12T12:49:08.589Z,5.03
2023-03-12T12:52:29.843Z,5.67
2023-03-12T12:55:50.050Z,7.03
2023-03-12T12:59:46.930Z,5.70
2023-03-12T13:03:08.209Z,7.40
2023-03-12T13:06:12.556Z,6.03
2023-03-12T13:09:37.432Z,6.63
2023-03-12T13:13:03.697Z,4.27
2023-03-12T13:16:35.057Z,4.50
2023-03-12T13:19:55.600Z,4.03
2023-03-12T13:23:38.951Z,4.13
2023-03-12T13:27:15.523Z,4.30
2023-03-12T13:30:52.569Z,4.97
2023-03-12T13:34:01.663Z,5.33
2023-03-12T13:37:56.253Z,5.10
2023-03-12T13:41:03.841Z,4.40
2023-03-12T13:44:54.136Z,3.73
2023-03-12T13:48:06.401Z,4.50
2023-03-12T13:51:25.411Z,4.57
2023-03-12T13:54:41.764Z,4.67
2023-03-12T13:58:26.278Z,5.03
2023-03-12T14:01:45.145Z,3.83
2023-03-12T14:04:54.072Z,3.80
2023-03-12T14:09:09.319Z,3.53
2023-03-12T14:12:23.475Z,4.30
2023-03-12T14:15:39.466Z,4.10
2023-03-12T14:18:54.159Z,5.27
2023-03-12T14:22:09.087Z,3.73
2023-03-12T14:25:31.071Z,3.80
2023-03-12T14:28:47.663Z,5.63
2023-03-12T14:32:25.142Z,3.90
2023-03-12T14:35:38.015Z,3.93
2023-03-12T14:38:49.171Z,4.30
2023-03-12T14:42:06.664Z,4.63
2023-03-12T14:45:19.929Z,5.10
2023-03-12T14:48:38.485Z,3.53
2023-03-12T14:51:46.864Z,4.13
2023-03-12T14:55:04.732Z,5.00
2023-03-12T14:58:30.927Z,3.70
2023-03-12T15:01:39.759Z,5.93
2023-03-12T15:04:50.191Z,3.50
2023-03-12T15:08:04.109Z,4.13
2023-03-12T15:11:10.678Z,4.00
2023-03-12T15:14:22.269Z,3.77
2023-03-12T15:17:33.628Z,4.50
2023-03-12T15:20:41.563Z,5.00
2023-03-12T15:23:48.670Z,3.77
2023-03-12T15:27:04.987Z,3.73
2023-03-12T15:30:33.301Z,5.40
2023-03-12T15:33:37.050Z,5.40
2023-03-12T15:37:00.902Z,6.83
2023-03-12T15:40:22.282Z,5.17
2023-03-12T15:43:41.307Z,6.33
2023-03-12T15:46:53.666Z,5.30
2023-03-12T15:50:36.919Z,5.50
2023-03-12T15:54:41.628Z,5.70
2023-03-12T15:58:06.081Z,5.10
2023-03-12T16:01:12.556Z,7.17
2023-03-12T16:04:15.768Z,32.83
2023-03-12T16:07:19.245Z,19.50
2023-03-12T16:10:30.037Z,55.20
2023-03-12T16:13:45.656Z,7.27
2023-03-12T16:16:58.158Z,10.23
2023-03-12T16:20:01.332Z,18.40
2023-03-12T16:23:11.341Z,16.20
2023-03-12T16:26:41.708Z,15.43
2023-03-12T16:30:14.156Z,11.17
2023-03-12T16:33:22.746Z,8.57
2023-03-12T16:37:01.516Z,9.23
2023-03-12T16:40:35.152Z,10.13
2023-03-12T16:44:02.748Z,12.63
2023-03-12T16:47:18.683Z,13.60
2023-03-12T16:50:44.781Z,11.60
2023-03-12T16:54:10.745Z,10.80
2023-03-12T16:57:40.908Z,10.67
2023-03-12T17:01:14.376Z,10.60
2023-03-12T17:04:45.590Z,14.40
2023-03-12T17:07:54.435Z,13.43
2023-03-12T17:15:01.953Z,19.10
2023-03-12T17:18:26.773Z,9.93
2023-03-12T17:21:53.001Z,13.27
2023-03-12T17:25:11.354Z,11.63
2023-03-12T17:28:24.343Z,14.80
2023-03-12T17:31:34.262Z,15.90
2023-03-12T17:35:03.317Z,11.97
2023-03-12T17:38:06.723Z,13.40
2023-03-12T17:41:25.431Z,9.07
2023-03-12T17:44:38.921Z,10.47
2023-03-12T17:47:42.391Z,9.27
2023-03-12T17:50:49.660Z,8.73
2023-03-12T17:54:05.887Z,11.67
2023-03-12T17:57:11.623Z,8.23
2023-03-12T18:00:23.383Z,7.97
2023-03-12T18:03:32.997Z,10.33
2023-03-12T18:06:40.387Z,7.57
2023-03-12T18:09:59.495Z,8.00
2023-03-12T18:13:05.390Z,7.07
2023-03-12T18:16:11.632Z,8.13
2023-03-12T18:19:16.112Z,7.87
2023-03-12T18:22:26.388Z,8.20
2023-03-12T18:25:46.674Z,9.03
2023-03-12T18:29:01.470Z,8.90
2023-03-12T18:32:23.482Z,9.73
2023-03-12T18:36:08.858Z,11.77
2023-03-12T18:44:39.565Z,11.27
2023-03-12T19:04:05.254Z,10.40
2023-03-12T19:08:41.447Z,11.23
2023-03-12T19:17:57.336Z,14.13
2023-03-12T19:28:43.529Z,11.07
2023-03-12T20:00:57.874Z,15.57
2023-03-12T20:19:00.658Z,14.43
2023-03-12T20:31:11.487Z,15.80
2023-03-12T20:35:16.768Z,16.13
2023-03-12T20:38:43.984Z,21.27
2023-03-12T20:55:09.345Z,15.33
2023-03-12T20:59:01.301Z,19.60
2023-03-12T21:02:53.796Z,14.50
2023-03-12T21:06:26.316Z,15.80
2023-03-12T21:10:05.553Z,18.07
2023-03-12T21:13:34.399Z,17.20
2023-03-12T21:17:00.565Z,17.77
2023-03-12T21:20:33.390Z,17.90
2023-03-12T21:23:40.099Z,14.30
2023-03-12T21:26:52.111Z,19.83
2023-03-12T21:29:55.150Z,17.87
2023-03-12T21:32:59.143Z,14.23
2023-03-12T21:36:09.422Z,19.83
2023-03-12T21:39:17.175Z,17.07
2023-03-12T21:42:22.393Z,16.63
2023-03-12T21:45:32.797Z,18.47
2023-03-12T21:48:41.292Z,18.17
2023-03-12T21:51:44.745Z,18.83
2023-03-12T21:54:54.570Z,20.27
2023-03-12T21:57:59.083Z,20.27
2023-03-12T22:01:17.143Z,16.27
2023-03-12T22:04:22.288Z,20.47
2023-03-12T22:07:30.846Z,16.40
2023-03-12T22:10:35.510Z,16.87
2023-03-12T22:13:43.257Z,16.13
2023-03-12T22:16:50.016Z,16.73
2023-03-12T22:19:53.108Z,18.23
2023-03-12T22:22:57.828Z,16.90
2023-03-12T22:26:05.944Z,17.63
2023-03-12T22:29:10.940Z,20.20
2023-03-12T22:32:13.946Z,16.03
2023-03-12T22:35:25.663Z,15.77
2023-03-12T22:38:34.909Z,19.60
2023-03-12T22:41:37.976Z,17.33
2023-03-12T22:44:44.930Z,15.70
2023-03-12T22:47:49.174Z,14.70
2023-03-12T22:50:54.745Z,17.73
2023-03-12T22:54:03.151Z,17.47
2023-03-12T22:57:08.233Z,17.80
2023-03-12T23:00:16.612Z,19.73
2023-03-12T23:03:19.660Z,18.67
2023-03-12T23:06:25.232Z,16.53
2023-03-12T23:09:36.232Z,16.30
2023-03-12T23:12:42.604Z,20.87
2023-03-12T23:15:46.974Z,21.97
2023-03-12T23:18:53.470Z,19.33
2023-03-12T23:22:02.053Z,16.93
2023-03-12T23:25:12.022Z,19.63
2023-03-12T23:28:19.240Z,15.83
2023-03-12T23:31:29.613Z,19.33
2023-03-12T23:34:40.329Z,20.00
2023-03-12T23:37:45.744Z,18.60
2023-03-12T23:40:48.821Z,17.50
2023-03-12T23:43:52.590Z,15.53
2023-03-12T23:46:56.971Z,13.83
2023-03-12T23:50:03.414Z,16.23
2023-03-12T23:53:16.703Z,16.60
2023-03-12T23:56:21.963Z,19.93
2023-03-12T23:59:24.921Z,17.20
